sensor_id;sensor_type;location;lat;lon;timestamp;P1;durP1;ratioP1;P2;durP2;ratioP2
72115;SDS011;59991;52.140;5.428;2023-11-21T00:00:12;18.70;;;11.63;;
72115;SDS011;59991;52.140;5.428;2023-11-21T00:00:46;16.70;;;11.65;;
72115;SDS011;59991;52.140;5.428;2023-11-21T00:01:17;14.38;;;10.10;;
72115;SDS011;59991;52.140;5.428;2023-11-21T00:01:49;18.13;;;13.02;;
72115;SDS011;59991;52.140;5.428;2023-11-21T00:02:21;14.13;;;11.77;;
72115;SDS011;59991;52.140;5.428;2023-11-21T00:02:53;16.27;;;10.93;;
72115;SDS011;59991;52.140;5.428;2023-11-21T00:03:24;17.08;;;11.32;;
72115;SDS011;59991;52.140;5.428;2023-11-21T00:03:56;16.10;;;10.63;;
72115;SDS011;59991;52.140;5.428;2023-11-21T00:04:27;16.63;;;11.35;;
72115;SDS011;59991;52.140;5.428;2023-11-21T00:04:59;18.30;;;11.82;;
72115;SDS011;59991;52.140;5.428;2023-11-21T00:05:30;14.23;;;11.33;;
72115;SDS011;59991;52.140;5.428;2023-11-21T00:06:21;17.27;;;10.40;;
72115;SDS011;59991;52.140;5.428;2023-11-21T00:06:52;14.68;;;10.02;;
72115;SDS011;59991;52.140;5.428;2023-11-21T00:07:43;21.90;;;11.18;;
72115;SDS011;59991;52.140;5.428;2023-11-21T00:08:15;14.23;;;11.25;;
72115;SDS011;59991;52.140;5.428;2023-11-21T00:08:46;15.38;;;11.38;;
72115;SDS011;59991;52.140;5.428;2023-11-21T00:09:18;20.95;;;12.15;;
72115;SDS011;59991;52.140;5.428;2023-11-21T00:09:50;15.23;;;11.35;;
72115;SDS011;59991;52.140;5.428;2023-11-21T00:10:22;16.23;;;12.00;;
72115;SDS011;59991;52.140;5.428;2023-11-21T00:10:53;14.95;;;11.35;;
72115;SDS011;59991;52.140;5.428;2023-11-21T00:11:26;15.03;;;11.57;;
72115;SDS011;59991;52.140;5.428;2023-11-21T00:11:57;14.75;;;11.10;;
72115;SDS011;59991;52.140;5.428;2023-11-21T00:12:30;22.85;;;12.57;;
72115;SDS011;59991;52.140;5.428;2023-11-21T00:13:02;17.45;;;12.68;;
72115;SDS011;59991;52.140;5.428;2023-11-21T00:13:34;18.08;;;11.95;;
72115;SDS011;59991;52.140;5.428;2023-11-21T00:14:06;16.40;;;11.25;;
72115;SDS011;59991;52.140;5.428;2023-11-21T00:14:37;19.42;;;11.93;;
72115;SDS011;59991;52.140;5.428;2023-11-21T00:15:09;16.02;;;11.75;;
72115;SDS011;59991;52.140;5.428;2023-11-21T00:15:44;17.58;;;11.77;;
72115;SDS011;59991;52.140;5.428;2023-11-21T00:16:16;16.25;;;10.52;;
72115;SDS011;59991;52.140;5.428;2023-11-21T00:16:47;15.10;;;11.43;;
72115;SDS011;59991;52.140;5.428;2023-11-21T00:17:19;16.90;;;11.80;;
72115;SDS011;59991;52.140;5.428;2023-11-21T00:17:50;14.82;;;11.13;;
72115;SDS011;59991;52.140;5.428;2023-11-21T00:18:22;15.55;;;12.13;;
72115;SDS011;59991;52.140;5.428;2023-11-21T00:18:53;14.88;;;11.32;;
72115;SDS011;59991;52.140;5.428;2023-11-21T00:19:25;15.30;;;11.88;;
72115;SDS011;59991;52.140;5.428;2023-11-21T00:19:57;16.55;;;11.07;;
72115;SDS011;59991;52.140;5.428;2023-11-21T00:20:28;16.80;;;13.02;;
72115;SDS011;59991;52.140;5.428;2023-11-21T00:21:00;15.98;;;12.05;;
72115;SDS011;59991;52.140;5.428;2023-11-21T00:21:31;18.40;;;11.60;;
72115;SDS011;59991;52.140;5.428;2023-11-21T00:22:03;17.77;;;11.83;;
72115;SDS011;59991;52.140;5.428;2023-11-21T00:22:35;14.50;;;10.93;;
72115;SDS011;59991;52.140;5.428;2023-11-21T00:23:07;14.30;;;12.57;;
72115;SDS011;59991;52.140;5.428;2023-11-21T00:23:39;14.10;;;11.82;;
72115;SDS011;59991;52.140;5.428;2023-11-21T00:24:11;13.27;;;11.57;;
72115;SDS011;59991;52.140;5.428;2023-11-21T00:25:02;17.15;;;12.23;;
72115;SDS011;59991;52.140;5.428;2023-11-21T00:26:42;16.77;;;11.70;;
72115;SDS011;59991;52.140;5.428;2023-11-21T00:27:14;15.38;;;10.48;;
72115;SDS011;59991;52.140;5.428;2023-11-21T00:27:46;13.65;;;10.75;;
72115;SDS011;59991;52.140;5.428;2023-11-21T00:28:17;14.50;;;10.87;;
72115;SDS011;59991;52.140;5.428;2023-11-21T00:28:49;15.43;;;11.20;;
72115;SDS011;59991;52.140;5.428;2023-11-21T00:29:21;15.50;;;11.77;;
72115;SDS011;59991;52.140;5.428;2023-11-21T00:29:53;13.82;;;10.40;;
72115;SDS011;59991;52.140;5.428;2023-11-21T00:30:24;17.75;;;11.15;;
72115;SDS011;59991;52.140;5.428;2023-11-21T00:30:56;14.57;;;10.73;;
72115;SDS011;59991;52.140;5.428;2023-11-21T00:31:46;13.35;;;10.25;;
72115;SDS011;59991;52.140;5.428;2023-11-21T00:32:17;15.43;;;11.23;;
72115;SDS011;59991;52.140;5.428;2023-11-21T00:32:49;15.45;;;11.13;;
72115;SDS011;59991;52.140;5.428;2023-11-21T00:33:20;14.43;;;11.00;;
72115;SDS011;59991;52.140;5.428;2023-11-21T00:33:52;16.53;;;12.43;;
72115;SDS011;59991;52.140;5.428;2023-11-21T00:34:25;14.63;;;10.63;;
72115;SDS011;59991;52.140;5.428;2023-11-21T00:34:56;14.57;;;12.23;;
72115;SDS011;59991;52.140;5.428;2023-11-21T00:35:28;15.70;;;12.45;;
72115;SDS011;59991;52.140;5.428;2023-11-21T00:35:59;17.42;;;11.13;;
72115;SDS011;59991;52.140;5.428;2023-11-21T00:36:31;14.85;;;11.93;;
72115;SDS011;59991;52.140;5.428;2023-11-21T00:37:03;15.57;;;11.75;;
72115;SDS011;59991;52.140;5.428;2023-11-21T00:37:52;16.30;;;11.50;;
72115;SDS011;59991;52.140;5.428;2023-11-21T00:38:24;17.20;;;12.48;;
72115;SDS011;59991;52.140;5.428;2023-11-21T00:38:55;17.17;;;11.95;;
72115;SDS011;59991;52.140;5.428;2023-11-21T00:39:27;14.57;;;10.43;;
72115;SDS011;59991;52.140;5.428;2023-11-21T00:39:58;15.55;;;11.18;;
72115;SDS011;59991;52.140;5.428;2023-11-21T00:40:30;14.90;;;11.15;;
72115;SDS011;59991;52.140;5.428;2023-11-21T00:41:02;14.52;;;12.02;;
72115;SDS011;59991;52.140;5.428;2023-11-21T00:41:33;16.90;;;11.73;;
72115;SDS011;59991;52.140;5.428;2023-11-21T00:42:22;14.25;;;10.20;;
72115;SDS011;59991;52.140;5.428;2023-11-21T00:42:54;13.55;;;10.65;;
72115;SDS011;59991;52.140;5.428;2023-11-21T00:43:27;12.43;;;10.45;;
72115;SDS011;59991;52.140;5.428;2023-11-21T00:43:59;14.93;;;11.38;;
72115;SDS011;59991;52.140;5.428;2023-11-21T00:44:32;13.10;;;11.55;;
72115;SDS011;59991;52.140;5.428;2023-11-21T00:45:05;14.33;;;10.53;;
72115;SDS011;59991;52.140;5.428;2023-11-21T00:45:37;14.68;;;11.32;;
72115;SDS011;59991;52.140;5.428;2023-11-21T00:46:09;13.98;;;11.25;;
72115;SDS011;59991;52.140;5.428;2023-11-21T00:46:40;12.90;;;10.63;;
72115;SDS011;59991;52.140;5.428;2023-11-21T00:47:12;15.20;;;11.00;;
72115;SDS011;59991;52.140;5.428;2023-11-21T00:47:44;11.70;;;10.05;;
72115;SDS011;59991;52.140;5.428;2023-11-21T00:48:16;15.25;;;10.65;;
72115;SDS011;59991;52.140;5.428;2023-11-21T00:48:48;13.48;;;10.48;;
72115;SDS011;59991;52.140;5.428;2023-11-21T00:49:19;12.75;;;10.75;;
72115;SDS011;59991;52.140;5.428;2023-11-21T00:49:51;13.50;;;10.57;;
72115;SDS011;59991;52.140;5.428;2023-11-21T00:50:24;13.03;;;11.73;;
72115;SDS011;59991;52.140;5.428;2023-11-21T00:50:55;12.88;;;11.02;;
72115;SDS011;59991;52.140;5.428;2023-11-21T00:51:27;13.52;;;10.40;;
72115;SDS011;59991;52.140;5.428;2023-11-21T00:52:16;12.43;;;10.02;;
72115;SDS011;59991;52.140;5.428;2023-11-21T00:52:48;12.85;;;10.73;;
72115;SDS011;59991;52.140;5.428;2023-11-21T00:53:19;12.82;;;10.40;;
72115;SDS011;59991;52.140;5.428;2023-11-21T00:53:51;12.02;;;10.00;;
72115;SDS011;59991;52.140;5.428;2023-11-21T00:54:22;11.63;;;10.13;;
72115;SDS011;59991;52.140;5.428;2023-11-21T00:54:54;12.35;;;10.40;;
72115;SDS011;59991;52.140;5.428;2023-11-21T00:55:25;12.80;;;10.95;;
72115;SDS011;59991;52.140;5.428;2023-11-21T00:55:59;13.97;;;9.83;;
72115;SDS011;59991;52.140;5.428;2023-11-21T00:56:49;13.80;;;10.60;;
72115;SDS011;59991;52.140;5.428;2023-11-21T00:57:21;12.55;;;10.20;;
72115;SDS011;59991;52.140;5.428;2023-11-21T00:57:52;12.30;;;10.57;;
72115;SDS011;59991;52.140;5.428;2023-11-21T00:58:24;13.35;;;9.60;;
72115;SDS011;59991;52.140;5.428;2023-11-21T00:58:56;14.10;;;11.45;;
72115;SDS011;59991;52.140;5.428;2023-11-21T00:59:27;12.88;;;10.07;;
72115;SDS011;59991;52.140;5.428;2023-11-21T00:59:59;13.13;;;10.93;;
72115;SDS011;59991;52.140;5.428;2023-11-21T01:00:31;11.45;;;9.43;;
72115;SDS011;59991;52.140;5.428;2023-11-21T01:01:02;10.63;;;9.55;;
72115;SDS011;59991;52.140;5.428;2023-11-21T01:01:34;10.80;;;9.47;;
72115;SDS011;59991;52.140;5.428;2023-11-21T01:02:06;11.40;;;9.90;;
72115;SDS011;59991;52.140;5.428;2023-11-21T01:02:41;11.50;;;10.15;;
72115;SDS011;59991;52.140;5.428;2023-11-21T01:03:12;13.82;;;10.07;;
72115;SDS011;59991;52.140;5.428;2023-11-21T01:03:47;15.38;;;10.10;;
72115;SDS011;59991;52.140;5.428;2023-11-21T01:04:18;11.43;;;9.75;;
72115;SDS011;59991;52.140;5.428;2023-11-21T01:04:50;14.70;;;9.75;;
72115;SDS011;59991;52.140;5.428;2023-11-21T01:05:22;10.77;;;9.68;;
72115;SDS011;59991;52.140;5.428;2023-11-21T01:05:53;11.80;;;9.65;;
72115;SDS011;59991;52.140;5.428;2023-11-21T01:06:25;12.55;;;9.68;;
72115;SDS011;59991;52.140;5.428;2023-11-21T01:06:56;12.80;;;9.47;;
72115;SDS011;59991;52.140;5.428;2023-11-21T01:07:28;12.63;;;10.35;;
72115;SDS011;59991;52.140;5.428;2023-11-21T01:07:59;12.77;;;10.18;;
72115;SDS011;59991;52.140;5.428;2023-11-21T01:08:31;13.63;;;10.95;;
72115;SDS011;59991;52.140;5.428;2023-11-21T01:09:02;13.20;;;10.25;;
72115;SDS011;59991;52.140;5.428;2023-11-21T01:09:39;11.10;;;10.00;;
72115;SDS011;59991;52.140;5.428;2023-11-21T01:10:10;10.70;;;9.23;;
72115;SDS011;59991;52.140;5.428;2023-11-21T01:10:42;10.70;;;9.60;;
72115;SDS011;59991;52.140;5.428;2023-11-21T01:11:14;10.00;;;9.00;;
72115;SDS011;59991;52.140;5.428;2023-11-21T01:11:46;11.63;;;9.77;;
72115;SDS011;59991;52.140;5.428;2023-11-21T01:12:17;10.90;;;9.73;;
72115;SDS011;59991;52.140;5.428;2023-11-21T01:12:49;9.35;;;8.45;;
72115;SDS011;59991;52.140;5.428;2023-11-21T01:13:20;11.65;;;9.15;;
72115;SDS011;59991;52.140;5.428;2023-11-21T01:13:52;11.30;;;9.50;;
72115;SDS011;59991;52.140;5.428;2023-11-21T01:14:24;10.02;;;9.02;;
72115;SDS011;59991;52.140;5.428;2023-11-21T01:14:58;14.30;;;9.27;;
72115;SDS011;59991;52.140;5.428;2023-11-21T01:15:31;11.18;;;9.13;;
72115;SDS011;59991;52.140;5.428;2023-11-21T01:16:03;14.18;;;9.75;;
72115;SDS011;59991;52.140;5.428;2023-11-21T01:16:35;11.80;;;10.60;;
72115;SDS011;59991;52.140;5.428;2023-11-21T01:17:06;10.10;;;9.10;;
72115;SDS011;59991;52.140;5.428;2023-11-21T01:17:38;11.10;;;9.67;;
72115;SDS011;59991;52.140;5.428;2023-11-21T01:18:11;10.85;;;9.52;;
72115;SDS011;59991;52.140;5.428;2023-11-21T01:18:42;10.18;;;9.13;;
72115;SDS011;59991;52.140;5.428;2023-11-21T01:19:14;9.93;;;8.85;;
72115;SDS011;59991;52.140;5.428;2023-11-21T01:19:46;10.15;;;9.13;;
72115;SDS011;59991;52.140;5.428;2023-11-21T01:20:18;10.02;;;8.98;;
72115;SDS011;59991;52.140;5.428;2023-11-21T01:20:49;10.88;;;9.65;;
72115;SDS011;59991;52.140;5.428;2023-11-21T01:21:21;10.68;;;9.57;;
72115;SDS011;59991;52.140;5.428;2023-11-21T01:21:53;10.48;;;9.45;;
72115;SDS011;59991;52.140;5.428;2023-11-21T01:22:44;9.02;;;8.13;;
72115;SDS011;59991;52.140;5.428;2023-11-21T01:23:15;11.07;;;9.30;;
72115;SDS011;59991;52.140;5.428;2023-11-21T01:23:47;13.00;;;9.50;;
72115;SDS011;59991;52.140;5.428;2023-11-21T01:24:18;11.60;;;9.35;;
72115;SDS011;59991;52.140;5.428;2023-11-21T01:24:50;10.75;;;9.75;;
72115;SDS011;59991;52.140;5.428;2023-11-21T01:25:22;9.05;;;8.15;;
72115;SDS011;59991;52.140;5.428;2023-11-21T01:25:55;11.98;;;9.70;;
72115;SDS011;59991;52.140;5.428;2023-11-21T01:26:27;9.70;;;8.70;;
72115;SDS011;59991;52.140;5.428;2023-11-21T01:26:59;13.98;;;10.13;;
72115;SDS011;59991;52.140;5.428;2023-11-21T01:27:30;10.82;;;9.65;;
72115;SDS011;59991;52.140;5.428;2023-11-21T01:28:02;9.57;;;8.65;;
72115;SDS011;59991;52.140;5.428;2023-11-21T01:28:33;10.87;;;9.80;;
72115;SDS011;59991;52.140;5.428;2023-11-21T01:29:05;12.02;;;9.98;;
72115;SDS011;59991;52.140;5.428;2023-11-21T01:29:37;10.02;;;9.13;;
72115;SDS011;59991;52.140;5.428;2023-11-21T01:30:08;12.35;;;9.45;;
72115;SDS011;59991;52.140;5.428;2023-11-21T01:30:58;11.05;;;9.95;;
72115;SDS011;59991;52.140;5.428;2023-11-21T01:31:30;9.85;;;8.85;;
72115;SDS011;59991;52.140;5.428;2023-11-21T01:32:02;10.32;;;8.80;;
72115;SDS011;59991;52.140;5.428;2023-11-21T01:32:35;10.55;;;9.45;;
72115;SDS011;59991;52.140;5.428;2023-11-21T01:33:07;12.10;;;9.25;;
72115;SDS011;59991;52.140;5.428;2023-11-21T01:33:39;10.57;;;9.57;;
72115;SDS011;59991;52.140;5.428;2023-11-21T01:34:11;10.80;;;9.60;;
72115;SDS011;59991;52.140;5.428;2023-11-21T01:34:43;9.95;;;8.70;;
72115;SDS011;59991;52.140;5.428;2023-11-21T01:35:15;10.85;;;9.65;;
72115;SDS011;59991;52.140;5.428;2023-11-21T01:35:46;11.23;;;10.10;;
72115;SDS011;59991;52.140;5.428;2023-11-21T01:36:36;11.48;;;9.50;;
72115;SDS011;59991;52.140;5.428;2023-11-21T01:37:08;11.57;;;10.40;;
72115;SDS011;59991;52.140;5.428;2023-11-21T01:37:40;10.45;;;9.35;;
72115;SDS011;59991;52.140;5.428;2023-11-21T01:38:12;12.38;;;10.25;;
72115;SDS011;59991;52.140;5.428;2023-11-21T01:39:02;9.80;;;8.63;;
72115;SDS011;59991;52.140;5.428;2023-11-21T01:39:35;11.10;;;9.43;;
72115;SDS011;59991;52.140;5.428;2023-11-21T01:40:10;11.30;;;9.07;;
72115;SDS011;59991;52.140;5.428;2023-11-21T01:40:45;10.23;;;9.23;;
72115;SDS011;59991;52.140;5.428;2023-11-21T01:41:16;11.95;;;9.45;;
72115;SDS011;59991;52.140;5.428;2023-11-21T01:41:48;10.45;;;9.38;;
72115;SDS011;59991;52.140;5.428;2023-11-21T01:42:21;14.20;;;11.07;;
72115;SDS011;59991;52.140;5.428;2023-11-21T01:42:52;11.30;;;10.10;;
72115;SDS011;59991;52.140;5.428;2023-11-21T01:43:43;10.35;;;9.18;;
72115;SDS011;59991;52.140;5.428;2023-11-21T01:44:14;11.68;;;9.13;;
72115;SDS011;59991;52.140;5.428;2023-11-21T01:44:46;10.52;;;9.23;;
72115;SDS011;59991;52.140;5.428;2023-11-21T01:45:17;11.07;;;9.75;;
72115;SDS011;59991;52.140;5.428;2023-11-21T01:45:49;9.97;;;8.97;;
72115;SDS011;59991;52.140;5.428;2023-11-21T01:46:21;14.07;;;10.15;;
72115;SDS011;59991;52.140;5.428;2023-11-21T01:46:53;11.55;;;9.50;;
72115;SDS011;59991;52.140;5.428;2023-11-21T01:47:25;10.57;;;9.32;;
72115;SDS011;59991;52.140;5.428;2023-11-21T01:47:57;11.77;;;9.55;;
72115;SDS011;59991;52.140;5.428;2023-11-21T01:48:29;12.25;;;9.57;;
72115;SDS011;59991;52.140;5.428;2023-11-21T01:49:01;11.93;;;10.13;;
72115;SDS011;59991;52.140;5.428;2023-11-21T01:49:32;10.32;;;9.30;;
72115;SDS011;59991;52.140;5.428;2023-11-21T01:50:06;13.82;;;10.23;;
72115;SDS011;59991;52.140;5.428;2023-11-21T01:50:38;12.23;;;9.20;;
72115;SDS011;59991;52.140;5.428;2023-11-21T01:51:10;10.87;;;9.77;;
72115;SDS011;59991;52.140;5.428;2023-11-21T01:51:42;12.40;;;9.10;;
72115;SDS011;59991;52.140;5.428;2023-11-21T01:52:15;11.65;;;9.43;;
72115;SDS011;59991;52.140;5.428;2023-11-21T01:52:46;11.05;;;9.82;;
72115;SDS011;59991;52.140;5.428;2023-11-21T01:53:19;11.15;;;10.05;;
72115;SDS011;59991;52.140;5.428;2023-11-21T01:53:51;12.77;;;10.40;;
72115;SDS011;59991;52.140;5.428;2023-11-21T01:54:23;10.20;;;9.10;;
72115;SDS011;59991;52.140;5.428;2023-11-21T01:54:56;10.32;;;9.10;;
72115;SDS011;59991;52.140;5.428;2023-11-21T01:55:30;11.02;;;8.60;;
72115;SDS011;59991;52.140;5.428;2023-11-21T01:56:01;10.93;;;9.35;;
72115;SDS011;59991;52.140;5.428;2023-11-21T01:56:33;10.30;;;9.17;;
72115;SDS011;59991;52.140;5.428;2023-11-21T01:57:06;10.80;;;9.70;;
72115;SDS011;59991;52.140;5.428;2023-11-21T01:57:38;13.40;;;9.02;;
72115;SDS011;59991;52.140;5.428;2023-11-21T01:58:10;11.85;;;10.05;;
72115;SDS011;59991;52.140;5.428;2023-11-21T01:58:44;16.25;;;9.68;;
72115;SDS011;59991;52.140;5.428;2023-11-21T01:59:19;12.68;;;10.05;;
72115;SDS011;59991;52.140;5.428;2023-11-21T02:00:10;10.73;;;8.38;;
72115;SDS011;59991;52.140;5.428;2023-11-21T02:00:48;10.13;;;9.05;;
72115;SDS011;59991;52.140;5.428;2023-11-21T02:01:22;11.80;;;9.77;;
72115;SDS011;59991;52.140;5.428;2023-11-21T02:01:53;15.25;;;9.95;;
72115;SDS011;59991;52.140;5.428;2023-11-21T02:02:27;12.17;;;9.43;;
72115;SDS011;59991;52.140;5.428;2023-11-21T02:02:59;13.32;;;10.02;;
72115;SDS011;59991;52.140;5.428;2023-11-21T02:03:31;12.25;;;9.50;;
72115;SDS011;59991;52.140;5.428;2023-11-21T02:04:03;11.48;;;9.73;;
72115;SDS011;59991;52.140;5.428;2023-11-21T02:04:35;12.50;;;9.90;;
72115;SDS011;59991;52.140;5.428;2023-11-21T02:05:08;13.07;;;9.73;;
72115;SDS011;59991;52.140;5.428;2023-11-21T02:05:40;14.90;;;10.27;;
72115;SDS011;59991;52.140;5.428;2023-11-21T02:06:11;11.50;;;9.13;;
72115;SDS011;59991;52.140;5.428;2023-11-21T02:06:43;19.05;;;11.23;;
72115;SDS011;59991;52.140;5.428;2023-11-21T02:07:14;11.73;;;10.18;;
72115;SDS011;59991;52.140;5.428;2023-11-21T02:07:46;13.83;;;9.77;;
72115;SDS011;59991;52.140;5.428;2023-11-21T02:08:19;11.95;;;9.85;;
72115;SDS011;59991;52.140;5.428;2023-11-21T02:08:51;13.40;;;10.35;;
72115;SDS011;59991;52.140;5.428;2023-11-21T02:09:24;13.63;;;11.20;;
72115;SDS011;59991;52.140;5.428;2023-11-21T02:09:57;17.45;;;11.65;;
72115;SDS011;59991;52.140;5.428;2023-11-21T02:10:28;12.05;;;10.02;;
72115;SDS011;59991;52.140;5.428;2023-11-21T02:11:00;13.02;;;10.18;;
72115;SDS011;59991;52.140;5.428;2023-11-21T02:11:33;14.98;;;10.40;;
72115;SDS011;59991;52.140;5.428;2023-11-21T02:12:06;13.48;;;10.68;;
72115;SDS011;59991;52.140;5.428;2023-11-21T02:12:38;11.52;;;10.15;;
72115;SDS011;59991;52.140;5.428;2023-11-21T02:13:10;17.47;;;10.50;;
72115;SDS011;59991;52.140;5.428;2023-11-21T02:13:42;11.18;;;9.98;;
72115;SDS011;59991;52.140;5.428;2023-11-21T02:14:14;13.23;;;10.07;;
72115;SDS011;59991;52.140;5.428;2023-11-21T02:14:46;14.18;;;9.90;;
72115;SDS011;59991;52.140;5.428;2023-11-21T02:15:17;14.95;;;11.60;;
72115;SDS011;59991;52.140;5.428;2023-11-21T02:15:52;15.05;;;10.63;;
72115;SDS011;59991;52.140;5.428;2023-11-21T02:16:25;13.48;;;10.38;;
72115;SDS011;59991;52.140;5.428;2023-11-21T02:16:58;12.55;;;9.70;;
72115;SDS011;59991;52.140;5.428;2023-11-21T02:17:29;16.02;;;10.20;;
72115;SDS011;59991;52.140;5.428;2023-11-21T02:18:01;14.63;;;10.32;;
72115;SDS011;59991;52.140;5.428;2023-11-21T02:18:34;13.17;;;10.17;;
72115;SDS011;59991;52.140;5.428;2023-11-21T02:19:07;13.73;;;9.57;;
72115;SDS011;59991;52.140;5.428;2023-11-21T02:19:42;15.35;;;10.00;;
72115;SDS011;59991;52.140;5.428;2023-11-21T02:20:14;14.35;;;9.75;;
72115;SDS011;59991;52.140;5.428;2023-11-21T02:20:46;12.27;;;9.40;;
72115;SDS011;59991;52.140;5.428;2023-11-21T02:21:18;13.80;;;9.63;;
72115;SDS011;59991;52.140;5.428;2023-11-21T02:22:42;10.82;;;9.25;;
72115;SDS011;59991;52.140;5.428;2023-11-21T02:23:14;11.75;;;9.27;;
72115;SDS011;59991;52.140;5.428;2023-11-21T02:23:46;11.77;;;9.50;;
72115;SDS011;59991;52.140;5.428;2023-11-21T02:24:21;13.97;;;9.70;;
72115;SDS011;59991;52.140;5.428;2023-11-21T02:24:53;11.48;;;9.10;;
72115;SDS011;59991;52.140;5.428;2023-11-21T02:25:28;14.23;;;10.23;;
72115;SDS011;59991;52.140;5.428;2023-11-21T02:26:04;15.52;;;9.45;;
72115;SDS011;59991;52.140;5.428;2023-11-21T02:26:55;12.60;;;9.75;;
72115;SDS011;59991;52.140;5.428;2023-11-21T02:27:27;12.88;;;9.20;;
72115;SDS011;59991;52.140;5.428;2023-11-21T02:27:59;12.55;;;9.27;;
72115;SDS011;59991;52.140;5.428;2023-11-21T02:28:32;11.35;;;9.93;;
72115;SDS011;59991;52.140;5.428;2023-11-21T02:29:04;14.32;;;10.18;;
72115;SDS011;59991;52.140;5.428;2023-11-21T02:30:26;11.03;;;8.20;;
72115;SDS011;59991;52.140;5.428;2023-11-21T02:31:02;13.27;;;9.00;;
72115;SDS011;59991;52.140;5.428;2023-11-21T02:31:35;11.85;;;9.15;;
72115;SDS011;59991;52.140;5.428;2023-11-21T02:32:08;12.43;;;9.88;;
72115;SDS011;59991;52.140;5.428;2023-11-21T02:32:42;11.25;;;9.15;;
72115;SDS011;59991;52.140;5.428;2023-11-21T02:33:19;13.70;;;8.07;;
72115;SDS011;59991;52.140;5.428;2023-11-21T02:33:51;11.93;;;8.38;;
72115;SDS011;59991;52.140;5.428;2023-11-21T02:34:24;11.02;;;9.63;;
72115;SDS011;59991;52.140;5.428;2023-11-21T02:34:58;11.90;;;8.82;;
72115;SDS011;59991;52.140;5.428;2023-11-21T02:35:32;11.75;;;10.30;;
72115;SDS011;59991;52.140;5.428;2023-11-21T02:36:04;11.80;;;9.13;;
72115;SDS011;59991;52.140;5.428;2023-11-21T02:36:36;13.18;;;9.15;;
72115;SDS011;59991;52.140;5.428;2023-11-21T02:37:08;11.45;;;8.98;;
72115;SDS011;59991;52.140;5.428;2023-11-21T02:37:40;11.77;;;8.70;;
72115;SDS011;59991;52.140;5.428;2023-11-21T02:38:12;14.48;;;9.63;;
72115;SDS011;59991;52.140;5.428;2023-11-21T02:38:43;12.05;;;8.70;;
72115;SDS011;59991;52.140;5.428;2023-11-21T02:39:15;12.88;;;8.88;;
72115;SDS011;59991;52.140;5.428;2023-11-21T02:39:47;11.57;;;9.60;;
72115;SDS011;59991;52.140;5.428;2023-11-21T02:40:40;10.65;;;8.60;;
72115;SDS011;59991;52.140;5.428;2023-11-21T02:41:12;13.85;;;9.65;;
72115;SDS011;59991;52.140;5.428;2023-11-21T02:41:43;10.00;;;7.87;;
72115;SDS011;59991;52.140;5.428;2023-11-21T02:42:15;13.38;;;9.40;;
72115;SDS011;59991;52.140;5.428;2023-11-21T02:42:47;13.20;;;9.18;;
72115;SDS011;59991;52.140;5.428;2023-11-21T02:43:18;13.68;;;10.02;;
72115;SDS011;59991;52.140;5.428;2023-11-21T02:43:50;16.52;;;9.73;;
72115;SDS011;59991;52.140;5.428;2023-11-21T02:44:22;15.02;;;9.57;;
72115;SDS011;59991;52.140;5.428;2023-11-21T02:44:53;11.57;;;9.10;;
72115;SDS011;59991;52.140;5.428;2023-11-21T02:45:24;12.30;;;9.27;;
72115;SDS011;59991;52.140;5.428;2023-11-21T02:45:56;12.15;;;9.13;;
72115;SDS011;59991;52.140;5.428;2023-11-21T02:46:27;14.27;;;8.95;;
72115;SDS011;59991;52.140;5.428;2023-11-21T02:46:59;9.90;;;8.63;;
72115;SDS011;59991;52.140;5.428;2023-11-21T02:47:31;13.43;;;8.50;;
72115;SDS011;59991;52.140;5.428;2023-11-21T02:48:03;10.57;;;9.30;;
72115;SDS011;59991;52.140;5.428;2023-11-21T02:48:35;11.75;;;9.35;;
72115;SDS011;59991;52.140;5.428;2023-11-21T02:49:07;12.40;;;8.68;;
72115;SDS011;59991;52.140;5.428;2023-11-21T02:49:41;10.30;;;8.38;;
72115;SDS011;59991;52.140;5.428;2023-11-21T02:50:12;11.50;;;8.68;;
72115;SDS011;59991;52.140;5.428;2023-11-21T02:50:44;10.73;;;8.40;;
72115;SDS011;59991;52.140;5.428;2023-11-21T02:51:16;10.68;;;9.23;;
72115;SDS011;59991;52.140;5.428;2023-11-21T02:51:47;11.40;;;8.57;;
72115;SDS011;59991;52.140;5.428;2023-11-21T02:52:19;10.70;;;8.83;;
72115;SDS011;59991;52.140;5.428;2023-11-21T02:52:50;13.40;;;8.98;;
72115;SDS011;59991;52.140;5.428;2023-11-21T02:53:22;15.27;;;10.05;;
72115;SDS011;59991;52.140;5.428;2023-11-21T02:53:55;11.65;;;9.38;;
72115;SDS011;59991;52.140;5.428;2023-11-21T02:54:31;13.93;;;8.88;;
72115;SDS011;59991;52.140;5.428;2023-11-21T02:55:07;11.27;;;8.23;;
72115;SDS011;59991;52.140;5.428;2023-11-21T02:55:39;9.65;;;8.70;;
72115;SDS011;59991;52.140;5.428;2023-11-21T02:56:11;10.65;;;8.98;;
72115;SDS011;59991;52.140;5.428;2023-11-21T02:56:42;13.70;;;9.30;;
72115;SDS011;59991;52.140;5.428;2023-11-21T02:57:14;10.98;;;9.73;;
72115;SDS011;59991;52.140;5.428;2023-11-21T02:57:45;11.63;;;8.93;;
72115;SDS011;59991;52.140;5.428;2023-11-21T02:58:17;11.60;;;8.75;;
72115;SDS011;59991;52.140;5.428;2023-11-21T02:58:48;13.13;;;9.60;;
72115;SDS011;59991;52.140;5.428;2023-11-21T02:59:20;10.35;;;8.80;;
72115;SDS011;59991;52.140;5.428;2023-11-21T02:59:51;13.48;;;9.13;;
72115;SDS011;59991;52.140;5.428;2023-11-21T03:00:23;10.75;;;8.55;;
72115;SDS011;59991;52.140;5.428;2023-11-21T03:00:58;11.10;;;8.15;;
72115;SDS011;59991;52.140;5.428;2023-11-21T03:01:29;16.80;;;9.25;;
72115;SDS011;59991;52.140;5.428;2023-11-21T03:02:00;11.80;;;9.73;;
72115;SDS011;59991;52.140;5.428;2023-11-21T03:02:32;11.98;;;9.32;;
72115;SDS011;59991;52.140;5.428;2023-11-21T03:03:04;14.37;;;10.03;;
72115;SDS011;59991;52.140;5.428;2023-11-21T03:03:35;11.18;;;9.68;;
72115;SDS011;59991;52.140;5.428;2023-11-21T03:04:10;12.45;;;8.75;;
72115;SDS011;59991;52.140;5.428;2023-11-21T03:04:42;10.45;;;9.27;;
72115;SDS011;59991;52.140;5.428;2023-11-21T03:05:32;12.35;;;9.40;;
72115;SDS011;59991;52.140;5.428;2023-11-21T03:06:06;13.23;;;9.27;;
72115;SDS011;59991;52.140;5.428;2023-11-21T03:06:38;15.43;;;9.68;;
72115;SDS011;59991;52.140;5.428;2023-11-21T03:07:09;16.90;;;10.65;;
72115;SDS011;59991;52.140;5.428;2023-11-21T03:07:41;10.93;;;8.68;;
72115;SDS011;59991;52.140;5.428;2023-11-21T03:08:13;12.65;;;8.18;;
72115;SDS011;59991;52.140;5.428;2023-11-21T03:08:44;12.93;;;8.00;;
72115;SDS011;59991;52.140;5.428;2023-11-21T03:09:15;13.52;;;9.10;;
72115;SDS011;59991;52.140;5.428;2023-11-21T03:09:47;12.02;;;8.80;;
72115;SDS011;59991;52.140;5.428;2023-11-21T03:10:19;10.88;;;8.75;;
72115;SDS011;59991;52.140;5.428;2023-11-21T03:10:50;12.05;;;9.73;;
72115;SDS011;59991;52.140;5.428;2023-11-21T03:11:22;12.38;;;9.00;;
72115;SDS011;59991;52.140;5.428;2023-11-21T03:11:53;10.50;;;8.98;;
72115;SDS011;59991;52.140;5.428;2023-11-21T03:12:25;12.43;;;8.93;;
72115;SDS011;59991;52.140;5.428;2023-11-21T03:12:57;13.85;;;9.68;;
72115;SDS011;59991;52.140;5.428;2023-11-21T03:13:29;13.82;;;8.73;;
72115;SDS011;59991;52.140;5.428;2023-11-21T03:14:00;12.33;;;8.50;;
72115;SDS011;59991;52.140;5.428;2023-11-21T03:14:32;14.15;;;9.70;;
72115;SDS011;59991;52.140;5.428;2023-11-21T03:15:07;13.77;;;8.60;;
72115;SDS011;59991;52.140;5.428;2023-11-21T03:15:40;15.20;;;9.13;;
72115;SDS011;59991;52.140;5.428;2023-11-21T03:16:12;14.35;;;9.32;;
72115;SDS011;59991;52.140;5.428;2023-11-21T03:16:44;15.52;;;8.90;;
72115;SDS011;59991;52.140;5.428;2023-11-21T03:17:16;11.10;;;8.27;;